Time;durP1;ratioP1;P1;durP2;ratioP2;P2;SDS_P1;SDS_P2;PMS_P1;PMS_P2;Temp;Humidity;BMP_temperature;BMP_pressure;BME280_temperature;BME280_humidity;BME280_pressure;Samples;Min_cycle;Max_cycle;Signal;HPM_P1;HPM_P2
2023/03/01 00:01:17;;;;;;;15.63;9.68;;;;;;;;;;4987244;28;20057;-78
2023/03/01 00:03:45;;;;;;;12.02;9.05;;;;;;;;;;4987246;28;20054;-78
2023/03/01 00:06:12;;;;;;;10.35;7.97;;;;;;;;;;4987618;28;20054;-78
2023/03/01 00:08:40;;;;;;;13.18;9.43;;;;;;;;;;4987127;28;20073;-78
2023/03/01 00:11:18;;;;;;;12.80;9.30;;;;;;;;;;4987064;28;20042;-78
2023/03/01 00:13:46;;;;;;;12.27;8.50;;;;;;;;;;4987581;28;20459;-78
2023/03/01 00:16:15;;;;;;;13.25;9.35;;;;;;;;;;4985309;28;20046;-78
2023/03/01 00:18:43;;;;;;;12.25;9.25;;;;;;;;;;4986652;28;20050;-78
2023/03/01 00:21:10;;;;;;;12.15;8.63;;;;;;;;;;4986949;28;20406;-77
2023/03/01 00:23:38;;;;;;;11.13;8.70;;;;;;;;;;4986686;28;20468;-78
2023/03/01 00:26:09;;;;;;;11.55;8.45;;;;;;;;;;5007199;28;20053;-78
2023/03/01 00:28:38;;;;;;;10.82;8.77;;;;;;;;;;5010163;28;20065;-78
2023/03/01 00:31:12;;;;;;;11.15;8.77;;;;;;;;;;5001180;28;20568;-78
2023/03/01 00:33:40;;;;;;;13.00;8.80;;;;;;;;;;4987092;28;20042;-78
2023/03/01 00:36:07;;;;;;;9.38;7.07;;;;;;;;;;5017600;28;20511;-78
2023/03/01 00:38:36;;;;;;;14.55;9.48;;;;;;;;;;4986404;28;20093;-78
2023/03/01 00:41:07;;;;;;;10.77;9.57;;;;;;;;;;5000903;28;20408;-78
2023/03/01 00:43:36;;;;;;;11.50;10.02;;;;;;;;;;4970588;28;20055;-78
2023/03/01 00:46:04;;;;;;;9.43;8.43;;;;;;;;;;4982943;28;20653;-78
2023/03/01 00:48:32;;;;;;;11.93;8.30;;;;;;;;;;5013098;28;20054;-78
2023/03/01 00:51:09;;;;;;;11.95;8.52;;;;;;;;;;4985694;28;20499;-78
2023/03/01 00:53:37;;;;;;;12.05;7.85;;;;;;;;;;5000921;28;20112;-78
2023/03/01 00:56:06;;;;;;;14.10;8.70;;;;;;;;;;4986706;28;20121;-78
2023/03/01 00:58:34;;;;;;;12.82;9.10;;;;;;;;;;4986744;28;20101;-78
2023/03/01 01:01:01;;;;;;;15.52;10.13;;;;;;;;;;4985141;28;20177;-78
2023/03/01 01:03:29;;;;;;;15.57;10.30;;;;;;;;;;4990058;28;20054;-78
2023/03/01 01:05:56;;;;;;;11.00;7.65;;;;;;;;;;4989556;28;20050;-78
2023/03/01 01:08:24;;;;;;;13.88;9.73;;;;;;;;;;4990322;28;20664;-79
2023/03/01 01:10:51;;;;;;;12.07;8.50;;;;;;;;;;4989178;28;20050;-78
2023/03/01 01:13:19;;;;;;;13.63;10.18;;;;;;;;;;4990900;28;20046;-78
2023/03/01 01:15:46;;;;;;;15.20;9.50;;;;;;;;;;4989986;28;20050;-78
2023/03/01 01:18:14;;;;;;;13.43;9.85;;;;;;;;;;4990962;28;20054;-78
2023/03/01 01:20:41;;;;;;;12.05;8.85;;;;;;;;;;4993134;28;20050;-78
2023/03/01 01:23:09;;;;;;;15.70;10.45;;;;;;;;;;5008603;28;20568;-78
2023/03/01 01:25:36;;;;;;;15.63;10.65;;;;;;;;;;5007157;28;20057;-78
2023/03/01 01:28:04;;;;;;;12.35;8.57;;;;;;;;;;4988659;28;20054;-78
2023/03/01 01:30:31;;;;;;;12.15;9.32;;;;;;;;;;5003245;28;20054;-79
2023/03/01 01:32:59;;;;;;;12.73;9.07;;;;;;;;;;4989764;28;20058;-78
2023/03/01 01:35:26;;;;;;;11.48;8.52;;;;;;;;;;5004874;28;20042;-78
2023/03/01 01:37:54;;;;;;;11.23;8.75;;;;;;;;;;5006896;28;20505;-78
2023/03/01 01:40:21;;;;;;;17.42;9.75;;;;;;;;;;5003955;28;20158;-79
2023/03/01 01:42:48;;;;;;;13.90;12.55;;;;;;;;;;4990031;28;20109;-78
2023/03/01 01:45:36;;;;;;;11.93;8.55;;;;;;;;;;4985639;28;20402;-78
2023/03/01 01:48:05;;;;;;;13.60;10.90;;;;;;;;;;5021135;28;20077;-78
2023/03/01 01:50:37;;;;;;;12.90;9.00;;;;;;;;;;5012981;28;20464;-79
2023/03/01 01:53:07;;;;;;;16.20;8.85;;;;;;;;;;5021055;28;20061;-78
2023/03/01 01:55:36;;;;;;;14.13;8.55;;;;;;;;;;5001579;28;20081;-79
2023/03/01 01:58:05;;;;;;;18.55;10.00;;;;;;;;;;4987580;28;20134;-78
2023/03/01 02:00:32;;;;;;;13.02;10.77;;;;;;;;;;4981917;28;20431;-79
2023/03/01 02:03:02;;;;;;;12.88;9.07;;;;;;;;;;4988101;28;20097;-79
2023/03/01 02:05:36;;;;;;;12.82;10.70;;;;;;;;;;4985014;28;20293;-78
2023/03/01 02:08:03;;;;;;;11.65;8.45;;;;;;;;;;4988518;28;20468;-78
2023/03/01 02:10:33;;;;;;;12.57;9.35;;;;;;;;;;4988010;28;20058;-79
2023/03/01 02:13:02;;;;;;;11.75;8.32;;;;;;;;;;4988380;28;20555;-79
2023/03/01 02:15:33;;;;;;;10.95;8.32;;;;;;;;;;4989352;28;20042;-78
2023/03/01 02:18:01;;;;;;;15.10;9.60;;;;;;;;;;4989219;28;20042;-78
2023/03/01 02:20:35;;;;;;;11.48;9.38;;;;;;;;;;4985759;28;20158;-78
2023/03/01 02:23:02;;;;;;;12.60;9.00;;;;;;;;;;4988882;28;20042;-78
2023/03/01 02:25:42;;;;;;;13.02;8.55;;;;;;;;;;5019583;28;20130;-78
2023/03/01 02:28:15;;;;;;;12.77;8.80;;;;;;;;;;5001380;28;20583;-78
2023/03/01 02:33:32;;;;;;;12.57;8.60;;;;;;;;;;4988313;28;20049;-78
2023/03/01 02:36:01;;;;;;;12.30;8.20;;;;;;;;;;4989200;28;20544;-79
2023/03/01 02:38:29;;;;;;;12.30;8.07;;;;;;;;;;4989447;28;20053;-79
2023/03/01 02:40:57;;;;;;;13.23;8.45;;;;;;;;;;4991222;28;20499;-78
2023/03/01 02:43:30;;;;;;;12.07;8.75;;;;;;;;;;4988250;28;20056;-79
2023/03/01 02:46:04;;;;;;;12.50;9.48;;;;;;;;;;4989175;28;20050;-78
2023/03/01 02:48:51;;;;;;;10.85;7.97;;;;;;;;;;4987953;28;20500;-78
2023/03/01 02:51:26;;;;;;;12.10;8.48;;;;;;;;;;4993662;28;20058;-78
2023/03/01 02:53:56;;;;;;;13.38;8.48;;;;;;;;;;5020181;28;20500;-78
2023/03/01 02:56:24;;;;;;;13.68;9.23;;;;;;;;;;4993329;28;20053;-78
2023/03/01 02:58:52;;;;;;;11.07;7.57;;;;;;;;;;4988836;28;20453;-78
2023/03/01 03:01:20;;;;;;;10.23;7.22;;;;;;;;;;5019075;28;20461;-78
2023/03/01 03:03:48;;;;;;;14.15;9.15;;;;;;;;;;5013098;28;20050;-78
2023/03/01 03:06:17;;;;;;;13.13;9.10;;;;;;;;;;5003432;28;20042;-78
2023/03/01 03:08:44;;;;;;;25.20;22.92;;;;;;;;;;4987013;28;20397;-78
2023/03/01 03:11:11;;;;;;;11.40;8.38;;;;;;;;;;5013885;28;20046;-78
2023/03/01 03:13:47;;;;;;;13.75;12.52;;;;;;;;;;4985983;28;20042;-78
2023/03/01 03:16:15;;;;;;;11.77;8.77;;;;;;;;;;5019434;28;20041;-78
2023/03/01 03:18:43;;;;;;;59.70;54.78;;;;;;;;;;5002610;28;20081;-78
2023/03/01 03:21:12;;;;;;;12.90;9.10;;;;;;;;;;4987433;28;20050;-78
2023/03/01 03:23:39;;;;;;;13.45;11.13;;;;;;;;;;4980263;28;20053;-78
2023/03/01 03:26:07;;;;;;;11.77;8.68;;;;;;;;;;4986727;28;20592;-78
2023/03/01 03:28:39;;;;;;;15.73;14.13;;;;;;;;;;4980625;28;20046;-78
2023/03/01 03:31:07;;;;;;;15.50;9.13;;;;;;;;;;4980606;28;20070;-78
2023/03/01 03:33:35;;;;;;;12.95;9.48;;;;;;;;;;4985271;28;20046;-78
2023/03/01 03:36:03;;;;;;;11.18;9.80;;;;;;;;;;4983782;28;20062;-78
2023/03/01 03:38:30;;;;;;;13.35;9.20;;;;;;;;;;4986716;28;20042;-79
2023/03/01 03:41:05;;;;;;;9.50;7.63;;;;;;;;;;5018712;28;20066;-78
2023/03/01 03:43:33;;;;;;;11.23;8.77;;;;;;;;;;4986659;28;20168;-78
2023/03/01 03:46:05;;;;;;;10.35;7.20;;;;;;;;;;4983432;28;20547;-78
2023/03/01 03:48:36;;;;;;;18.30;16.52;;;;;;;;;;4986349;28;20308;-78
2023/03/01 03:51:07;;;;;;;15.15;9.10;;;;;;;;;;4986522;28;20053;-79
2023/03/01 03:53:34;;;;;;;13.10;8.57;;;;;;;;;;4985396;28;20058;-78
2023/03/01 03:56:02;;;;;;;12.68;9.93;;;;;;;;;;4987198;28;20043;-78
2023/03/01 03:58:29;;;;;;;12.38;10.18;;;;;;;;;;4986538;28;20146;-78
2023/03/01 04:00:57;;;;;;;14.82;11.38;;;;;;;;;;4986628;28;20484;-78
2023/03/01 04:03:26;;;;;;;11.48;8.38;;;;;;;;;;4985508;28;20093;-78
2023/03/01 04:05:53;;;;;;;12.88;8.68;;;;;;;;;;4985347;28;20046;-78
2023/03/01 04:08:21;;;;;;;15.65;9.50;;;;;;;;;;4987660;28;20126;-79
2023/03/01 04:10:50;;;;;;;14.43;11.45;;;;;;;;;;4983541;28;20077;-78
2023/03/01 04:13:19;;;;;;;13.40;8.70;;;;;;;;;;4982905;28;20064;-78
2023/03/01 04:15:48;;;;;;;14.20;12.50;;;;;;;;;;4986246;28;20046;-78
2023/03/01 04:18:17;;;;;;;11.88;8.80;;;;;;;;;;4986093;28;20051;-79
2023/03/01 04:20:45;;;;;;;11.50;8.23;;;;;;;;;;4986513;28;20047;-79
2023/03/01 04:23:16;;;;;;;11.93;7.78;;;;;;;;;;4993996;28;20049;-78
2023/03/01 04:25:43;;;;;;;11.95;9.30;;;;;;;;;;4988519;28;20052;-78
2023/03/01 04:28:11;;;;;;;12.02;9.00;;;;;;;;;;4987402;28;20057;-78
2023/03/01 04:30:38;;;;;;;15.02;9.85;;;;;;;;;;4984058;28;20575;-78
2023/03/01 04:33:07;;;;;;;12.30;8.20;;;;;;;;;;4984594;28;20492;-79
2023/03/01 04:35:35;;;;;;;14.07;9.10;;;;;;;;;;5038191;23;20054;-85
2023/03/01 04:38:02;;;;;;;11.57;9.20;;;;;;;;;;5065195;28;20060;-85
2023/03/01 04:40:30;;;;;;;15.38;13.85;;;;;;;;;;5037387;28;20069;-84
2023/03/01 04:42:57;;;;;;;16.05;9.00;;;;;;;;;;5043027;28;20053;-84
2023/03/01 04:45:26;;;;;;;12.00;7.85;;;;;;;;;;5045880;28;20046;-84
2023/03/01 04:47:53;;;;;;;12.35;8.57;;;;;;;;;;5034217;28;20081;-84
2023/03/01 04:50:21;;;;;;;12.02;8.82;;;;;;;;;;5044666;28;20064;-85
2023/03/01 04:52:49;;;;;;;13.93;9.10;;;;;;;;;;5040655;28;20454;-84
2023/03/01 04:55:16;;;;;;;14.93;10.25;;;;;;;;;;5020551;28;20046;-85
2023/03/01 04:57:44;;;;;;;13.90;9.43;;;;;;;;;;5029609;28;20407;-83
2023/03/01 05:00:21;;;;;;;12.98;9.00;;;;;;;;;;5031939;28;20526;-83
2023/03/01 05:02:52;;;;;;;14.98;9.02;;;;;;;;;;5024081;28;20140;-83
2023/03/01 05:05:21;;;;;;;12.80;9.15;;;;;;;;;;5010051;28;20096;-83
2023/03/01 05:07:48;;;;;;;13.75;9.40;;;;;;;;;;5012709;28;20042;-84
2023/03/01 05:10:16;;;;;;;10.90;8.55;;;;;;;;;;5015906;28;20044;-83
2023/03/01 05:12:43;;;;;;;40.55;37.50;;;;;;;;;;5008824;28;20045;-84
2023/03/01 05:15:11;;;;;;;15.82;10.50;;;;;;;;;;5022112;28;20123;-84
2023/03/01 05:17:38;;;;;;;13.20;9.40;;;;;;;;;;5033664;28;20166;-84
2023/03/01 05:20:08;;;;;;;15.02;11.23;;;;;;;;;;5021105;28;20121;-82
2023/03/01 05:22:35;;;;;;;17.58;15.93;;;;;;;;;;5025743;28;20458;-84
2023/03/01 05:25:03;;;;;;;16.75;10.60;;;;;;;;;;5021682;28;20287;-84
2023/03/01 05:27:31;;;;;;;15.07;10.23;;;;;;;;;;5014874;28;20081;-84
2023/03/01 05:29:58;;;;;;;15.73;9.30;;;;;;;;;;5014836;28;20042;-84
2023/03/01 05:32:26;;;;;;;15.48;9.52;;;;;;;;;;5019449;28;20050;-84
2023/03/01 05:34:54;;;;;;;13.95;10.18;;;;;;;;;;5016981;28;20096;-83
2023/03/01 05:37:22;;;;;;;13.75;10.32;;;;;;;;;;5019300;28;20072;-84
2023/03/01 05:39:50;;;;;;;27.98;25.38;;;;;;;;;;5028273;28;20042;-84
2023/03/01 05:42:20;;;;;;;18.85;13.05;;;;;;;;;;5025642;28;20045;-84
2023/03/01 05:44:47;;;;;;;16.08;11.38;;;;;;;;;;5006392;28;20053;-84
2023/03/01 05:47:17;;;;;;;15.82;10.18;;;;;;;;;;5016664;28;20045;-84
2023/03/01 05:49:44;;;;;;;19.25;16.08;;;;;;;;;;5024203;28;20068;-84
2023/03/01 05:52:12;;;;;;;15.20;9.88;;;;;;;;;;5017756;28;20046;-84
2023/03/01 05:54:39;;;;;;;13.85;10.32;;;;;;;;;;5020768;28;20073;-83
2023/03/01 05:57:06;;;;;;;14.02;10.15;;;;;;;;;;5011307;28;20046;-84
2023/03/01 05:59:34;;;;;;;16.05;10.63;;;;;;;;;;5008558;28;20045;-85
2023/03/01 06:02:02;;;;;;;14.70;12.90;;;;;;;;;;5008718;28;20650;-84
2023/03/01 06:04:29;;;;;;;14.10;10.10;;;;;;;;;;5010986;28;20050;-84
2023/03/01 06:06:57;;;;;;;16.63;10.45;;;;;;;;;;5007046;28;20073;-84
2023/03/01 06:09:25;;;;;;;20.48;11.27;;;;;;;;;;5010246;28;21476;-85
2023/03/01 06:11:56;;;;;;;;;;;;;;;;;;5021841;28;20125;-85
2023/03/01 06:14:23;;;;;;;17.63;11.07;;;;;;;;;;5017784;28;19921;-84
2023/03/01 06:16:51;;;;;;;59.55;53.83;;;;;;;;;;5035049;28;20110;-84
2023/03/01 06:19:18;;;;;;;20.25;14.25;;;;;;;;;;5036798;28;20049;-85
2023/03/01 06:21:45;;;;;;;20.58;13.63;;;;;;;;;;5024993;28;20053;-84
2023/03/01 06:24:13;;;;;;;18.45;11.77;;;;;;;;;;5022827;28;20046;-83
2023/03/01 06:26:40;;;;;;;17.45;12.27;;;;;;;;;;5016850;28;20049;-83
2023/03/01 06:29:08;;;;;;;28.83;14.48;;;;;;;;;;5015868;28;20095;-85
2023/03/01 06:31:35;;;;;;;19.45;13.38;;;;;;;;;;5016963;28;20053;-86
2023/03/01 06:34:55;;;;;;;25.00;22.40;;;;;;;;;;5017743;28;20052;-84
2023/03/01 06:37:22;;;;;;;23.38;19.02;;;;;;;;;;5017467;28;20037;-81
2023/03/01 06:39:50;;;;;;;24.88;16.48;;;;;;;;;;5017383;28;20046;-84
2023/03/01 06:42:18;;;;;;;24.60;13.48;;;;;;;;;;5016192;28;20058;-88
2023/03/01 06:44:45;;;;;;;19.95;13.05;;;;;;;;;;5016516;28;20471;-83
2023/03/01 06:47:18;;;;;;;22.63;16.40;;;;;;;;;;5016300;28;20111;-83
2023/03/01 06:49:48;;;;;;;22.70;14.70;;;;;;;;;;5016669;28;20134;-85
2023/03/01 06:52:15;;;;;;;21.10;13.38;;;;;;;;;;5017272;28;20045;-84
2023/03/01 06:54:42;;;;;;;25.83;15.88;;;;;;;;;;5028072;28;20065;-85
2023/03/01 06:57:12;;;;;;;32.03;26.17;;;;;;;;;;5032187;28;20050;-85
2023/03/01 06:59:39;;;;;;;21.52;14.13;;;;;;;;;;5031769;28;20076;-86
2023/03/01 07:02:07;;;;;;;22.58;13.98;;;;;;;;;;5030032;28;20054;-84
2023/03/01 07:04:34;;;;;;;22.48;14.32;;;;;;;;;;5029318;28;20615;-84
2023/03/01 07:07:01;;;;;;;32.28;21.83;;;;;;;;;;5010184;28;20067;-84
2023/03/01 07:09:29;;;;;;;30.08;19.95;;;;;;;;;;5001096;28;20077;-86
2023/03/01 07:11:57;;;;;;;22.17;13.93;;;;;;;;;;4992676;28;20054;-86
2023/03/01 07:14:25;;;;;;;42.03;24.92;;;;;;;;;;4991697;28;20078;-85
2023/03/01 07:16:55;;;;;;;22.52;14.02;;;;;;;;;;4991615;28;20050;-84
2023/03/01 07:19:23;;;;;;;22.88;15.68;;;;;;;;;;5011315;28;20050;-84
2023/03/01 07:21:50;;;;;;;20.35;13.57;;;;;;;;;;5010025;28;20048;-84
2023/03/01 07:24:18;;;;;;;17.60;12.52;;;;;;;;;;5010090;28;20111;-84
2023/03/01 07:26:49;;;;;;;20.33;13.38;;;;;;;;;;5010746;28;20060;-80
2023/03/01 07:29:16;;;;;;;23.27;14.13;;;;;;;;;;5009861;28;20073;-83
2023/03/01 07:31:44;;;;;;;19.55;13.80;;;;;;;;;;5010460;28;20050;-84
2023/03/01 07:34:11;;;;;;;19.85;12.75;;;;;;;;;;5010120;28;20100;-85
2023/03/01 07:36:39;;;;;;;21.48;13.57;;;;;;;;;;5009615;28;20041;-84
2023/03/01 07:39:06;;;;;;;19.75;13.20;;;;;;;;;;5022808;28;20030;-85
2023/03/01 07:41:34;;;;;;;22.15;14.45;;;;;;;;;;5030087;28;20052;-83
2023/03/01 07:44:01;;;;;;;18.48;13.35;;;;;;;;;;5028883;28;20046;-84
2023/03/01 07:46:28;;;;;;;20.67;13.90;;;;;;;;;;5025416;28;20060;-83
2023/03/01 07:48:59;;;;;;;24.13;13.90;;;;;;;;;;5021072;28;20076;-83
2023/03/01 07:51:33;;;;;;;20.60;12.70;;;;;;;;;;5018117;28;20054;-83
2023/03/01 07:54:01;;;;;;;17.58;12.48;;;;;;;;;;5020941;28;20073;-83
2023/03/01 07:56:28;;;;;;;20.92;12.95;;;;;;;;;;5021278;28;20054;-84
2023/03/01 07:58:56;;;;;;;22.30;15.75;;;;;;;;;;5017138;28;20056;-83
2023/03/01 08:01:26;;;;;;;24.13;13.85;;;;;;;;;;5014750;28;20046;-84
2023/03/01 08:04:13;;;;;;;24.48;13.82;;;;;;;;;;5013800;28;20049;-85
2023/03/01 08:06:44;;;;;;;17.52;12.27;;;;;;;;;;5026253;28;20431;-85
2023/03/01 08:09:12;;;;;;;20.92;13.05;;;;;;;;;;5014952;28;20104;-84
2023/03/01 08:11:39;;;;;;;24.52;20.95;;;;;;;;;;5014001;28;20104;-84
2023/03/01 08:14:07;;;;;;;25.52;22.15;;;;;;;;;;5011651;28;20044;-85
2023/03/01 08:16:35;;;;;;;22.00;12.80;;;;;;;;;;5012506;28;20073;-85
2023/03/01 08:19:06;;;;;;;20.95;14.73;;;;;;;;;;5010856;28;20060;-83
2023/03/01 08:21:34;;;;;;;24.20;21.23;;;;;;;;;;5013846;28;20758;-84
2023/03/01 08:24:05;;;;;;;30.25;27.35;;;;;;;;;;5013323;28;20059;-83
2023/03/01 08:26:33;;;;;;;39.57;35.80;;;;;;;;;;5012525;28;20496;-85
2023/03/01 08:29:01;;;;;;;16.52;13.27;;;;;;;;;;5012255;28;20281;-84
2023/03/01 08:31:30;;;;;;;26.00;13.77;;;;;;;;;;5012764;28;20054;-84
2023/03/01 08:33:59;;;;;;;151.38;135.50;;;;;;;;;;5012091;28;20046;-85
2023/03/01 08:36:28;;;;;;;105.20;94.45;;;;;;;;;;5011312;28;20506;-84
2023/03/01 08:39:02;;;;;;;35.30;24.42;;;;;;;;;;5012370;28;20038;-84
2023/03/01 08:41:33;;;;;;;20.52;18.27;;;;;;;;;;5028143;28;20508;-83
2023/03/01 08:44:11;;;;;;;51.65;47.45;;;;;;;;;;5011046;28;20515;-84
2023/03/01 08:46:46;;;;;;;17.02;10.93;;;;;;;;;;5010706;28;20096;-83
2023/03/01 08:49:17;;;;;;;48.38;44.65;;;;;;;;;;5010596;28;20057;-85
2023/03/01 08:51:46;;;;;;;;;;;;;;;;;;5011888;28;20373;-84
2023/03/01 08:54:20;;;;;;;102.88;94.25;;;;;;;;;;5009365;28;20457;-83
2023/03/01 08:56:48;;;;;;;;;;;;;;;;;;5012820;28;20046;-84
2023/03/01 08:59:19;;;;;;;56.13;51.35;;;;;;;;;;5012142;28;20307;-84
2023/03/01 09:01:49;;;;;;;22.50;20.08;;;;;;;;;;5011445;28;20104;-84
2023/03/01 09:04:20;;;;;;;65.20;59.55;;;;;;;;;;5024663;28;20048;-86
2023/03/01 09:06:49;;;;;;;14.60;12.55;;;;;;;;;;5031844;28;20089;-84
2023/03/01 09:09:19;;;;;;;20.88;15.60;;;;;;;;;;5028115;28;20058;-84
2023/03/01 09:11:50;;;;;;;19.63;16.13;;;;;;;;;;5015515;28;20462;-84
2023/03/01 09:14:18;;;;;;;21.27;14.85;;;;;;;;;;5020218;28;20061;-86
2023/03/01 09:16:48;;;;;;;16.58;13.13;;;;;;;;;;5012054;28;20120;-86
2023/03/01 09:19:15;;;;;;;18.88;12.73;;;;;;;;;;5011849;28;20109;-84
2023/03/01 09:21:58;;;;;;;22.70;19.80;;;;;;;;;;5012287;28;20050;-85
2023/03/01 09:24:27;;;;;;;102.78;93.72;;;;;;;;;;5014209;28;20500;-85
2023/03/01 09:27:01;;;;;;;29.30;26.65;;;;;;;;;;5015793;28;20078;-85
2023/03/01 09:29:31;;;;;;;103.90;94.38;;;;;;;;;;5016109;28;20042;-84
2023/03/01 09:32:05;;;;;;;55.25;51.40;;;;;;;;;;5016399;28;20038;-84
2023/03/01 09:35:00;;;;;;;78.85;72.68;;;;;;;;;;5015838;28;20133;-85
2023/03/01 09:37:24;;;;;;;98.55;91.47;;;;;;;;;;5017162;28;20060;-84
2023/03/01 09:40:18;;;;;;;23.50;20.60;;;;;;;;;;5017765;28;20037;-85
2023/03/01 09:43:25;;;;;;;146.75;136.10;;;;;;;;;;5018609;28;20492;-85
2023/03/01 09:46:05;;;;;;;272.75;248.05;;;;;;;;;;5019305;28;20050;-83
2023/03/01 09:48:37;;;;;;;52.42;47.90;;;;;;;;;;5030912;28;20057;-85
2023/03/01 09:51:09;;;;;;;57.65;53.58;;;;;;;;;;5028084;28;20049;-86
2023/03/01 09:53:37;;;;;;;16.75;14.48;;;;;;;;;;5032421;28;20068;-87
2023/03/01 09:56:06;;;;;;;16.83;14.77;;;;;;;;;;5031404;28;20096;-85
2023/03/01 09:58:48;;;;;;;29.40;26.63;;;;;;;;;;5022275;28;20042;-84
2023/03/01 10:01:31;;;;;;;16.70;14.93;;;;;;;;;;5019462;28;20042;-84
2023/03/01 10:04:11;;;;;;;22.60;19.15;;;;;;;;;;5022068;28;20414;-85
2023/03/01 10:06:49;;;;;;;12.30;10.33;;;;;;;;;;5015309;28;20127;-85
2023/03/01 10:09:26;;;;;;;38.05;35.10;;;;;;;;;;5018150;28;20101;-83
2023/03/01 10:11:55;;;;;;;10.90;8.90;;;;;;;;;;5018661;28;20080;-85
2023/03/01 10:14:29;;;;;;;14.05;9.25;;;;;;;;;;5028306;28;20084;-86
2023/03/01 10:17:07;;;;;;;25.75;23.33;;;;;;;;;;5026045;28;20050;-87
2023/03/01 10:19:42;;;;;;;11.90;9.10;;;;;;;;;;5029026;28;20029;-86
2023/03/01 10:22:14;;;;;;;13.20;8.95;;;;;;;;;;5031299;28;20084;-86
2023/03/01 10:24:41;;;;;;;13.98;8.88;;;;;;;;;;5030549;28;20049;-87
2023/03/01 10:27:25;;;;;;;17.13;12.02;;;;;;;;;;5036280;28;20037;-87
2023/03/01 10:29:55;;;;;;;14.82;11.68;;;;;;;;;;5035584;28;20030;-87
2023/03/01 10:32:29;;;;;;;12.23;8.30;;;;;;;;;;5031668;28;20046;-85
2023/03/01 10:34:59;;;;;;;14.00;10.63;;;;;;;;;;5059303;22;20057;-78
2023/03/01 10:37:27;;;;;;;12.45;10.63;;;;;;;;;;5015723;28;20067;-76
2023/03/01 10:40:12;;;;;;;18.13;16.40;;;;;;;;;;5005313;28;20060;-76
2023/03/01 10:42:47;;;;;;;12.15;8.07;;;;;;;;;;5000008;28;20058;-78
2023/03/01 10:45:32;;;;;;;15.38;9.00;;;;;;;;;;4997680;28;20096;-79
2023/03/01 10:48:09;;;;;;;15.57;14.23;;;;;;;;;;4985542;28;20226;-76
2023/03/01 10:50:37;;;;;;;9.27;6.97;;;;;;;;;;4990055;28;20216;-76
2023/03/01 10:53:28;;;;;;;9.38;7.53;;;;;;;;;;4994029;28;20054;-75
2023/03/01 10:55:58;;;;;;;10.85;6.80;;;;;;;;;;4998390;28;20571;-79
2023/03/01 10:58:26;;;;;;;47.35;43.55;;;;;;;;;;5000005;28;20050;-76
2023/03/01 11:00:59;;;;;;;12.68;7.15;;;;;;;;;;4994562;28;20693;-77
2023/03/01 11:03:39;;;;;;;9.02;7.13;;;;;;;;;;5005027;28;20046;-80
2023/03/01 11:06:13;;;;;;;8.93;6.53;;;;;;;;;;4996073;28;20062;-75
2023/03/01 11:08:46;;;;;;;10.43;6.80;;;;;;;;;;4982227;28;20050;-77
2023/03/01 11:11:13;;;;;;;9.45;6.20;;;;;;;;;;4991048;28;20050;-76
2023/03/01 11:13:54;;;;;;;8.30;6.40;;;;;;;;;;4990602;28;20069;-78
2023/03/01 11:16:26;;;;;;;8.85;6.05;;;;;;;;;;4991931;28;20382;-76
2023/03/01 11:19:21;;;;;;;7.95;5.78;;;;;;;;;;4990655;28;20042;-76
2023/03/01 11:21:54;;;;;;;12.77;6.57;;;;;;;;;;4988913;28;20062;-80
2023/03/01 11:24:25;;;;;;;10.50;5.97;;;;;;;;;;4989110;28;20089;-78
2023/03/01 11:26:54;;;;;;;9.30;5.80;;;;;;;;;;4989849;28;20065;-79
2023/03/01 11:29:27;;;;;;;8.55;6.03;;;;;;;;;;4989911;28;20791;-77
2023/03/01 11:32:08;;;;;;;8.98;6.28;;;;;;;;;;4990808;28;20062;-77
2023/03/01 11:34:51;;;;;;;185.35;166.23;;;;;;;;;;4989989;28;20432;-79
2023/03/01 11:37:25;;;;;;;8.32;5.65;;;;;;;;;;4995264;28;20050;-77
2023/03/01 11:40:05;;;;;;;75.50;69.35;;;;;;;;;;5001089;28;20053;-78
2023/03/01 11:42:43;;;;;;;27.05;24.95;;;;;;;;;;5009878;28;20081;-78
2023/03/01 11:45:11;;;;;;;7.32;5.13;;;;;;;;;;5008504;28;20076;-78
2023/03/01 11:47:57;;;;;;;10.75;9.85;;;;;;;;;;5008560;28;20511;-79
2023/03/01 11:50:43;;;;;;;6.47;5.00;;;;;;;;;;5009684;28;20650;-76
2023/03/01 11:53:37;;;;;;;17.15;10.57;;;;;;;;;;5007643;28;20038;-76
2023/03/01 11:56:10;;;;;;;44.78;41.03;;;;;;;;;;4991870;28;20126;-76
2023/03/01 11:58:52;;;;;;;9.05;5.68;;;;;;;;;;5005499;28;20138;-76
2023/03/01 12:01:38;;;;;;;10.90;9.75;;;;;;;;;;4987883;28;20046;-78
2023/03/01 12:04:11;;;;;;;10.32;7.55;;;;;;;;;;4988320;28;20050;-77
2023/03/01 12:06:55;;;;;;;8.80;6.47;;;;;;;;;;4989128;28;20125;-76
2023/03/01 12:09:39;;;;;;;10.00;7.05;;;;;;;;;;4987523;28;20054;-78
2023/03/01 12:12:13;;;;;;;8.20;7.07;;;;;;;;;;4988257;28;20050;-75
2023/03/01 12:14:49;;;;;;;12.38;7.70;;;;;;;;;;4988038;28;20104;-75
2023/03/01 12:17:19;;;;;;;12.45;7.32;;;;;;;;;;4987062;28;20081;-76
2023/03/01 12:19:50;;;;;;;12.52;8.10;;;;;;;;;;4987769;28;20054;-75
2023/03/01 12:22:23;;;;;;;12.40;7.85;;;;;;;;;;4989172;28;20298;-76
2023/03/01 12:25:03;;;;;;;12.60;8.10;;;;;;;;;;4988792;28;20054;-76
2023/03/01 12:27:30;;;;;;;11.68;7.80;;;;;;;;;;4988230;28;20058;-77
2023/03/01 12:30:06;;;;;;;18.85;11.82;;;;;;;;;;4988949;28;20150;-78
2023/03/01 12:32:47;;;;;;;28.27;25.48;;;;;;;;;;4988342;28;20084;-76
2023/03/01 12:35:32;;;;;;;13.20;10.15;;;;;;;;;;4987589;28;20052;-76
2023/03/01 12:38:00;;;;;;;21.33;19.35;;;;;;;;;;4988211;28;20480;-77
2023/03/01 12:40:34;;;;;;;11.73;8.07;;;;;;;;;;4988790;28;20050;-75
2023/03/01 12:43:16;;;;;;;13.90;11.07;;;;;;;;;;4987576;28;20162;-77
2023/03/01 12:46:02;;;;;;;13.10;9.63;;;;;;;;;;4988802;28;20046;-76
2023/03/01 12:48:35;;;;;;;12.55;9.45;;;;;;;;;;4988643;28;20050;-76
2023/03/01 12:51:05;;;;;;;54.33;33.03;;;;;;;;;;4988420;28;20057;-77
2023/03/01 12:53:35;;;;;;;19.70;17.67;;;;;;;;;;4988476;28;20460;-75
2023/03/01 12:56:07;;;;;;;12.10;9.23;;;;;;;;;;4989403;28;20085;-75
2023/03/01 12:58:34;;;;;;;;;;;;;;;;;;4993098;28;20073;-76
2023/03/01 13:01:34;;;;;;;61.33;55.28;;;;;;;;;;4993225;28;19933;-77
2023/03/01 13:04:04;;;;;;;20.05;16.92;;;;;;;;;;4992284;28;20508;-76
2023/03/01 13:06:40;;;;;;;12.02;9.40;;;;;;;;;;4992102;28;20050;-78
2023/03/01 13:09:30;;;;;;;14.73;9.45;;;;;;;;;;4986835;28;20054;-76
2023/03/01 13:11:58;;;;;;;17.25;12.65;;;;;;;;;;4990504;28;20589;-79
2023/03/01 13:14:25;;;;;;;50.60;45.95;;;;;;;;;;4991242;28;20157;-75
2023/03/01 13:16:53;;;;;;;234.20;142.18;;;;;;;;;;4991705;28;20504;-77
2023/03/01 13:19:22;;;;;;;20.27;18.13;;;;;;;;;;4991187;28;20845;-75
2023/03/01 13:21:51;;;;;;;110.30;97.38;;;;;;;;;;4990679;28;20483;-75
2023/03/01 13:24:29;;;;;;;42.53;38.70;;;;;;;;;;4991276;28;20054;-75
2023/03/01 13:27:08;;;;;;;55.95;50.80;;;;;;;;;;4992164;28;20393;-76
2023/03/01 13:29:45;;;;;;;12.23;8.55;;;;;;;;;;4991104;28;20078;-78
2023/03/01 13:32:24;;;;;;;13.70;8.15;;;;;;;;;;4990754;28;20058;-76
2023/03/01 13:35:20;;;;;;;46.95;30.50;;;;;;;;;;4988212;28;20065;-80
2023/03/01 13:37:47;;;;;;;103.57;92.05;;;;;;;;;;4988723;28;20401;-77
2023/03/01 13:40:22;;;;;;;10.02;8.20;;;;;;;;;;4991116;28;20065;-76
2023/03/01 13:42:50;;;;;;;12.18;8.55;;;;;;;;;;4991664;28;20455;-77
2023/03/01 13:45:41;;;;;;;14.70;13.05;;;;;;;;;;4990575;28;20050;-75
2023/03/01 13:48:10;;;;;;;14.13;9.18;;;;;;;;;;4990706;28;20049;-76
2023/03/01 13:50:45;;;;;;;15.30;13.57;;;;;;;;;;4991156;28;20286;-78
2023/03/01 13:53:16;;;;;;;9.57;7.47;;;;;;;;;;4991993;28;20150;-78
2023/03/01 13:55:45;;;;;;;14.73;8.85;;;;;;;;;;4986964;28;20050;-77
2023/03/01 13:58:22;;;;;;;12.05;7.72;;;;;;;;;;4991055;28;20531;-77
2023/03/01 14:00:56;;;;;;;9.80;7.38;;;;;;;;;;4992469;28;20133;-76
2023/03/01 14:03:24;;;;;;;7.90;6.78;;;;;;;;;;4996532;28;20137;-76
2023/03/01 14:05:58;;;;;;;24.27;21.88;;;;;;;;;;4993057;28;20456;-76
2023/03/01 14:08:42;;;;;;;29.42;26.58;;;;;;;;;;4989839;28;20492;-76
2023/03/01 14:11:16;;;;;;;11.27;7.70;;;;;;;;;;4991931;28;20050;-75
2023/03/01 14:13:44;;;;;;;12.63;10.45;;;;;;;;;;4991956;28;20050;-76
2023/03/01 14:16:18;;;;;;;10.98;6.88;;;;;;;;;;4992076;28;20100;-79
2023/03/01 14:18:56;;;;;;;8.05;5.80;;;;;;;;;;4991066;28;20500;-76
2023/03/01 14:21:25;;;;;;;29.42;26.45;;;;;;;;;;4991632;28;20527;-80
2023/03/01 14:23:53;;;;;;;198.85;167.38;;;;;;;;;;4990055;28;20046;-76
2023/03/01 14:26:22;;;;;;;12.07;7.20;;;;;;;;;;4990548;28;20133;-76
2023/03/01 14:28:50;;;;;;;10.18;7.28;;;;;;;;;;4990345;28;20054;-76
2023/03/01 14:31:33;;;;;;;257.13;170.73;;;;;;;;;;4989637;28;20522;-76
2023/03/01 14:34:19;;;;;;;11.27;7.47;;;;;;;;;;4988532;28;20057;-78
2023/03/01 14:36:46;;;;;;;16.90;12.27;;;;;;;;;;4992082;28;20050;-77
2023/03/01 14:39:17;;;;;;;43.83;40.03;;;;;;;;;;4992356;28;20038;-76
2023/03/01 14:41:45;;;;;;;70.22;41.78;;;;;;;;;;4993612;28;20070;-78
2023/03/01 14:44:18;;;;;;;57.60;36.80;;;;;;;;;;4991294;28;20087;-80
2023/03/01 14:46:46;;;;;;;9.02;8.13;;;;;;;;;;4989961;28;20047;-80
2023/03/01 14:49:15;;;;;;;9.40;7.60;;;;;;;;;;4989893;28;20517;-80
2023/03/01 14:51:48;;;;;;;9.27;7.60;;;;;;;;;;4990303;28;20047;-77
2023/03/01 14:54:24;;;;;;;66.20;59.88;;;;;;;;;;4990053;28;20502;-77